createdAt,value
2022-08-05T00:00:20.052Z,70.01
2022-08-05T00:02:51.117Z,70.64
2022-08-05T00:06:02.764Z,71.02
2022-08-05T00:09:15.815Z,72.52
2022-08-05T00:11:48.481Z,71.69
2022-08-05T00:14:20.837Z,71.28
2022-08-05T00:15:56.229Z,70.62
2022-08-05T00:16:52.995Z,70.99
2022-08-05T00:17:52.888Z,70.77
2022-08-05T00:19:01.741Z,70.93
2022-08-05T00:20:12.262Z,71.40
2022-08-05T00:21:23.410Z,72.23
2022-08-05T00:22:34.103Z,72.54
2022-08-05T00:23:53.753Z,72.80
2022-08-05T00:25:00.099Z,72.71
2022-08-05T00:26:11.268Z,72.74
2022-08-05T00:27:21.307Z,73.30
2022-08-05T00:28:32.953Z,73.29
2022-08-05T00:29:42.934Z,73.62
2022-08-05T00:30:53.627Z,73.56
2022-08-05T00:34:53.951Z,73.46
2022-08-05T00:34:55.421Z,73.53
2022-08-05T00:35:48.018Z,73.38
2022-08-05T00:37:11.391Z,73.06
2022-08-05T00:38:04.999Z,73.27
2022-08-05T00:40:31.881Z,73.84
2022-08-05T00:41:51.578Z,73.91
2022-08-05T00:44:15.325Z,74.02
2022-08-05T00:45:24.990Z,73.86
2022-08-05T00:47:57.228Z,73.64
2022-08-05T00:49:02.712Z,73.53
2022-08-05T00:50:12.648Z,73.95
2022-08-05T00:51:50.903Z,74.17
2022-08-05T00:52:36.595Z,74.39
2022-08-05T00:54:00.820Z,74.01
2022-08-05T00:55:00.501Z,74.08
2022-08-05T00:56:10.046Z,74.21
2022-08-05T00:58:37.011Z,74.50
2022-08-05T00:59:46.329Z,74.55
2022-08-05T01:02:14.833Z,75.84
2022-08-05T01:03:31.028Z,75.74
2022-08-05T01:05:54.871Z,75.67
2022-08-05T01:08:40.576Z,75.81
2022-08-05T01:12:23.765Z,75.25
2022-08-05T01:13:59.335Z,75.84
2022-08-05T01:15:35.480Z,75.53
2022-08-05T01:18:04.073Z,74.25
2022-08-05T01:19:56.489Z,75.15
2022-08-05T01:20:54.444Z,74.91
2022-08-05T01:23:57.451Z,75.72
2022-08-05T01:25:11.479Z,76.02
2022-08-05T01:28:18.734Z,75.48
2022-08-05T01:32:18.416Z,75.45
2022-08-05T01:35:03.000Z,75.51
2022-08-05T01:36:17.567Z,75.82
2022-08-05T01:38:55.859Z,75.63
2022-08-05T01:40:07.323Z,76.12
2022-08-05T01:42:38.066Z,75.94
2022-08-05T01:43:52.032Z,76.03
2022-08-05T01:45:03.464Z,75.50
2022-08-05T01:46:16.092Z,75.13
2022-08-05T01:47:38.854Z,75.27
2022-08-05T01:48:39.483Z,75.03
2022-08-05T01:50:01.450Z,75.61
2022-08-05T01:51:12.548Z,75.32
2022-08-05T01:52:21.143Z,75.14
2022-08-05T01:53:54.648Z,75.08
2022-08-05T01:58:12.355Z,74.91
2022-08-05T01:58:12.461Z,74.49
2022-08-05T02:00:35.623Z,73.69
2022-08-05T02:03:31.253Z,73.46
2022-08-05T02:04:38.436Z,73.53
2022-08-05T02:05:53.485Z,73.96
2022-08-05T02:07:03.533Z,74.17
2022-08-05T02:08:14.913Z,74.23
2022-08-05T02:09:26.547Z,74.22
2022-08-05T02:12:28.571Z,73.86
2022-08-05T02:15:14.258Z,74.01
2022-08-05T02:22:47.985Z,74.09
2022-08-05T02:25:21.687Z,74.49
2022-08-05T02:29:59.452Z,73.76
2022-08-05T02:32:23.728Z,73.37
2022-08-05T02:33:57.836Z,73.79
2022-08-05T02:35:13.854Z,73.23
2022-08-05T02:36:23.038Z,72.53
2022-08-05T02:37:35.875Z,72.44
2022-08-05T02:38:53.553Z,72.99
2022-08-05T02:40:00.825Z,72.20
2022-08-05T02:42:30.768Z,71.57
2022-08-05T02:44:06.220Z,72.04
2022-08-05T02:46:08.425Z,71.79
2022-08-05T02:47:22.120Z,71.54
2022-08-05T02:49:50.155Z,71.33
2022-08-05T02:51:04.551Z,71.81
2022-08-05T02:52:29.652Z,72.59
2022-08-05T02:54:52.354Z,72.63
2022-08-05T02:56:03.357Z,72.94
2022-08-05T02:58:10.504Z,72.70
2022-08-05T02:58:31.774Z,72.46
2022-08-05T02:59:50.333Z,72.49
2022-08-05T03:02:20.049Z,73.07
2022-08-05T03:04:53.255Z,71.49
2022-08-05T03:08:00.583Z,72.00
2022-08-05T03:08:43.011Z,72.01
2022-08-05T03:09:52.945Z,71.71
2022-08-05T03:13:51.915Z,71.05
2022-08-05T03:16:24.557Z,71.65
2022-08-05T03:17:34.780Z,71.16
2022-08-05T03:20:21.202Z,71.04
2022-08-05T03:21:41.343Z,70.19
2022-08-05T03:23:58.325Z,69.75
2022-08-05T03:25:33.302Z,69.94
2022-08-05T03:26:31.378Z,69.52
2022-08-05T03:28:49.771Z,68.91
2022-08-05T03:30:08.472Z,69.47
2022-08-05T03:32:30.929Z,68.63
2022-08-05T03:33:51.116Z,69.23
2022-08-05T03:36:11.986Z,70.21
2022-08-05T03:38:44.475Z,70.57
2022-08-05T03:42:51.660Z,73.06
2022-08-05T03:44:09.830Z,73.45
2022-08-05T03:46:26.863Z,73.95
2022-08-05T03:47:41.414Z,74.03
2022-08-05T03:50:03.737Z,73.57
2022-08-05T03:55:06.810Z,74.00
2022-08-05T03:57:16.704Z,73.25
2022-08-05T03:58:28.905Z,72.66
2022-08-05T04:00:57.712Z,72.78
2022-08-05T04:03:29.311Z,73.23
2022-08-05T04:05:59.271Z,72.37
2022-08-05T04:07:10.620Z,71.59
2022-08-05T04:08:34.939Z,70.87
2022-08-05T04:09:32.731Z,70.38
2022-08-05T04:10:45.800Z,71.24
2022-08-05T04:11:58.243Z,69.72
2022-08-05T04:14:29.809Z,69.44
2022-08-05T04:15:37.090Z,69.97
2022-08-05T04:16:49.172Z,70.24
2022-08-05T04:18:07.406Z,70.27
2022-08-05T04:20:31.887Z,71.17
2022-08-05T04:22:58.787Z,71.85
2022-08-05T04:27:10.876Z,71.84
2022-08-05T04:29:55.454Z,70.67
2022-08-05T04:32:33.545Z,70.03
2022-08-05T04:35:00.179Z,70.78
2022-08-05T04:36:15.972Z,70.80
2022-08-05T04:38:02.616Z,70.73
2022-08-05T04:38:39.898Z,70.59
2022-08-05T04:40:59.742Z,68.84
2022-08-05T04:42:10.902Z,68.56
2022-08-05T04:43:21.918Z,68.66
2022-08-05T04:44:31.933Z,68.22
2022-08-05T04:45:49.041Z,68.54
2022-08-05T04:46:53.898Z,69.36
2022-08-05T04:49:38.348Z,69.52
2022-08-05T04:52:00.772Z,70.24
2022-08-05T04:53:11.932Z,70.76
2022-08-05T04:56:15.455Z,71.50
2022-08-05T04:59:38.247Z,70.80
2022-08-05T05:02:06.761Z,69.55
2022-08-05T05:07:11.174Z,68.80
2022-08-05T05:09:52.259Z,69.30
2022-08-05T05:11:10.644Z,69.88
2022-08-05T05:12:22.224Z,70.75
2022-08-05T05:14:50.755Z,71.31
2022-08-05T05:16:05.923Z,71.71
2022-08-05T05:18:31.004Z,71.57
2022-08-05T05:19:47.278Z,71.56
2022-08-05T05:22:22.601Z,71.32
2022-08-05T05:24:58.035Z,70.54
2022-08-05T05:28:56.218Z,70.92
2022-08-05T05:30:08.323Z,70.74
2022-08-05T05:31:19.372Z,69.96
2022-08-05T05:32:30.073Z,70.31
2022-08-05T05:33:41.145Z,70.38
2022-08-05T05:34:52.464Z,70.06
2022-08-05T05:37:17.054Z,69.69
2022-08-05T05:38:27.764Z,69.85
2022-08-05T05:40:53.523Z,69.37
2022-08-05T05:43:27.451Z,69.30
2022-08-05T05:44:36.516Z,69.88
2022-08-05T05:45:48.286Z,70.68
2022-08-05T05:46:54.835Z,71.76
2022-08-05T05:48:08.422Z,72.07
2022-08-05T05:49:22.575Z,72.03
2022-08-05T05:51:50.312Z,71.95
2022-08-05T05:54:20.639Z,72.13
2022-08-05T05:55:52.220Z,72.27
2022-08-05T05:58:02.995Z,71.52
2022-08-05T06:00:34.075Z,71.37
2022-08-05T06:04:25.661Z,70.09
2022-08-05T06:05:34.682Z,70.52
2022-08-05T06:06:47.774Z,69.86
2022-08-05T06:08:01.143Z,68.58
2022-08-05T06:10:22.343Z,69.87
2022-08-05T06:12:50.849Z,70.48
2022-08-05T06:16:45.453Z,70.42
2022-08-05T06:19:33.989Z,70.54
2022-08-05T06:23:12.131Z,70.03
2022-08-05T06:26:12.620Z,69.61
2022-08-05T06:29:48.964Z,69.13
2022-08-05T06:32:25.291Z,69.10
2022-08-05T06:36:09.862Z,70.26
2022-08-05T06:37:56.725Z,70.26
2022-08-05T06:38:35.956Z,70.42
2022-08-05T06:39:42.347Z,71.30
2022-08-05T06:40:53.538Z,72.08
2022-08-05T06:42:03.907Z,72.45
2022-08-05T06:43:59.047Z,72.67
2022-08-05T06:44:25.241Z,72.74
2022-08-05T06:46:51.278Z,72.28
2022-08-05T06:48:47.320Z,72.12
2022-08-05T06:49:12.752Z,71.73
2022-08-05T06:50:26.193Z,70.81
2022-08-05T06:51:40.739Z,71.82
2022-08-05T06:53:03.560Z,72.06
2022-08-05T06:55:18.015Z,72.50
2022-08-05T06:56:34.296Z,72.14
2022-08-05T06:58:58.774Z,71.68
2022-08-05T07:00:12.970Z,71.61
2022-08-05T07:03:03.974Z,70.88
2022-08-05T07:04:19.178Z,70.67
2022-08-05T07:05:37.755Z,70.94
2022-08-05T07:08:02.126Z,69.82
2022-08-05T07:09:11.851Z,70.27
2022-08-05T07:11:40.557Z,69.74
2022-08-05T07:13:08.925Z,69.95
2022-08-05T07:16:12.254Z,70.44
2022-08-05T07:18:09.067Z,71.06
2022-08-05T07:22:38.864Z,70.96
2022-08-05T07:23:50.013Z,71.01
2022-08-05T07:25:22.090Z,71.22
2022-08-05T07:27:27.693Z,70.34
2022-08-05T07:32:53.249Z,69.87
2022-08-05T07:36:03.790Z,69.37
2022-08-05T07:39:24.696Z,69.36
2022-08-05T07:40:31.653Z,69.85
2022-08-05T07:42:07.927Z,68.66
2022-08-05T07:42:48.899Z,69.24
2022-08-05T07:45:17.489Z,70.60
2022-08-05T07:46:31.031Z,70.59
2022-08-05T07:49:01.973Z,71.28
2022-08-05T07:50:10.606Z,71.61
2022-08-05T07:51:23.092Z,71.79
2022-08-05T07:53:50.319Z,70.87
2022-08-05T07:54:56.932Z,70.81
2022-08-05T07:57:56.339Z,69.84
2022-08-05T07:58:58.717Z,69.77
2022-08-05T08:01:01.991Z,69.67
2022-08-05T08:03:44.095Z,69.72
2022-08-05T08:07:24.720Z,69.50
2022-08-05T08:08:35.356Z,70.07
2022-08-05T08:09:44.777Z,69.98
2022-08-05T08:10:56.513Z,69.58
2022-08-05T08:13:29.197Z,69.47
2022-08-05T08:14:32.764Z,68.52
2022-08-05T08:16:56.722Z,69.28
2022-08-05T08:18:13.836Z,69.55
2022-08-05T08:20:43.402Z,69.28
2022-08-05T08:21:43.417Z,69.52
2022-08-05T08:24:16.353Z,70.54
2022-08-05T08:26:00.108Z,70.90
2022-08-05T08:27:56.343Z,70.05
2022-08-05T08:29:29.479Z,70.50
2022-08-05T08:30:29.811Z,70.67
2022-08-05T08:32:46.574Z,69.42
2022-08-05T08:35:13.749Z,69.18
2022-08-05T08:39:25.251Z,67.73
2022-08-05T08:40:37.051Z,67.30
2022-08-05T08:41:50.764Z,67.14
2022-08-05T08:45:24.220Z,67.24
2022-08-05T08:45:31.886Z,67.75
2022-08-05T08:46:43.808Z,67.66
2022-08-05T08:50:12.845Z,68.50
2022-08-05T08:54:43.928Z,68.54
2022-08-05T08:57:13.337Z,68.45
2022-08-05T08:58:26.080Z,68.53
2022-08-05T09:00:53.258Z,68.05
2022-08-05T09:03:23.210Z,68.66
2022-08-05T09:06:08.840Z,67.62
2022-08-05T09:09:50.985Z,68.12
2022-08-05T09:12:20.739Z,67.27
2022-08-05T09:14:58.725Z,67.90
2022-08-05T09:17:43.057Z,67.81
2022-08-05T09:18:43.951Z,67.91
2022-08-05T09:21:11.711Z,67.48
2022-08-05T09:22:31.350Z,67.33
2022-08-05T09:28:03.962Z,67.25
2022-08-05T09:30:17.988Z,69.30
2022-08-05T09:32:39.855Z,68.84
2022-08-05T09:32:46.805Z,68.78
2022-08-05T09:35:26.312Z,68.79
2022-08-05T09:36:54.954Z,68.83
2022-08-05T09:38:17.655Z,68.66
2022-08-05T09:39:22.028Z,68.80
2022-08-05T09:40:40.953Z,69.02
2022-08-05T09:43:40.790Z,68.83
2022-08-05T09:44:42.450Z,68.90
2022-08-05T09:47:14.044Z,69.03
2022-08-05T09:48:28.461Z,68.89
2022-08-05T09:51:15.266Z,69.58
2022-08-05T09:52:24.519Z,69.50
2022-08-05T09:53:53.167Z,69.80
2022-08-05T09:55:58.278Z,69.79
2022-08-05T09:56:36.144Z,69.51
2022-08-05T09:59:17.025Z,68.97
2022-08-05T10:00:25.572Z,68.41
2022-08-05T10:02:58.137Z,68.09
2022-08-05T10:05:32.727Z,67.85
2022-08-05T10:08:34.999Z,67.88
2022-08-05T10:10:59.408Z,67.80
2022-08-05T10:12:30.006Z,67.77
2022-08-05T10:14:55.231Z,67.56
2022-08-05T10:16:06.925Z,67.67
2022-08-05T10:18:32.886Z,67.57
2022-08-05T10:20:04.224Z,67.56
2022-08-05T10:22:15.695Z,67.12
2022-08-05T10:24:49.162Z,66.46
2022-08-05T10:28:46.678Z,66.57
2022-08-05T10:33:00.859Z,66.49
2022-08-05T10:33:54.832Z,66.70
2022-08-05T10:36:23.635Z,66.64
2022-08-05T10:37:40.263Z,66.58
2022-08-05T10:40:17.683Z,66.49
2022-08-05T10:42:43.778Z,66.69
2022-08-05T10:45:40.016Z,65.18
2022-08-05T10:46:53.935Z,65.53
2022-08-05T10:48:31.695Z,65.80
2022-08-05T10:51:28.397Z,66.00
2022-08-05T10:52:49.496Z,65.71
2022-08-05T10:53:58.531Z,65.60
2022-08-05T10:56:29.101Z,65.25
2022-08-05T10:59:11.410Z,64.95
2022-08-05T11:03:25.083Z,65.15
2022-08-05T11:04:26.370Z,65.24
2022-08-05T11:05:36.603Z,65.08
2022-08-05T11:07:04.880Z,64.57
2022-08-05T11:08:34.266Z,64.83
2022-08-05T11:10:49.993Z,64.76
2022-08-05T11:13:17.889Z,64.56
2022-08-05T11:16:02.059Z,64.44
2022-08-05T11:17:58.178Z,64.41
2022-08-05T11:18:47.085Z,64.30
2022-08-05T11:21:31.641Z,65.20
2022-08-05T11:24:14.873Z,64.34
2022-08-05T11:27:37.097Z,64.19
2022-08-05T11:28:49.432Z,64.24
2022-08-05T11:31:51.819Z,64.13
2022-08-05T11:36:07.550Z,64.58
2022-08-05T11:42:46.119Z,64.74
2022-08-05T11:47:10.147Z,63.23
2022-08-05T11:48:11.515Z,63.67
2022-08-05T11:50:39.215Z,63.81
2022-08-05T11:51:52.283Z,63.40
2022-08-05T11:54:32.800Z,63.13
2022-08-05T11:55:41.955Z,63.16
2022-08-05T11:58:12.057Z,62.12
2022-08-05T11:59:23.702Z,61.86
2022-08-05T12:04:53.511Z,61.46
2022-08-05T12:08:03.304Z,61.70
2022-08-05T12:10:43.160Z,61.53
2022-08-05T12:11:45.474Z,61.43
2022-08-05T12:14:15.504Z,61.72
2022-08-05T12:15:33.945Z,62.05
2022-08-05T12:18:03.375Z,61.04
2022-08-05T12:20:27.152Z,60.98
2022-08-05T12:21:51.486Z,61.04
2022-08-05T12:23:12.682Z,61.23
2022-08-05T12:25:52.281Z,61.03
2022-08-05T12:27:09.637Z,61.02
2022-08-05T12:30:08.909Z,61.11
2022-08-05T12:32:36.081Z,61.25
2022-08-05T12:35:16.908Z,59.54
2022-08-05T12:37:45.965Z,59.83
2022-08-05T12:40:26.345Z,59.98
2022-08-05T12:42:59.443Z,59.74
2022-08-05T12:44:11.713Z,59.64
2022-08-05T12:45:22.122Z,59.55
2022-08-05T12:46:35.306Z,60.13
2022-08-05T12:48:01.777Z,60.07
2022-08-05T12:50:25.585Z,59.90
2022-08-05T12:52:14.033Z,59.83
2022-08-05T12:54:30.405Z,59.69
2022-08-05T12:55:41.300Z,59.56
2022-08-05T12:58:39.196Z,58.91
2022-08-05T13:05:06.963Z,58.11
2022-08-05T13:07:57.393Z,57.78
2022-08-05T13:10:12.599Z,57.99
2022-08-05T13:12:02.258Z,57.97
2022-08-05T13:12:50.953Z,58.02
2022-08-05T13:14:05.789Z,58.10
2022-08-05T13:15:16.477Z,58.12
2022-08-05T13:16:27.801Z,58.12
2022-08-05T13:18:54.934Z,58.06
2022-08-05T13:21:28.474Z,57.98
2022-08-05T13:23:56.844Z,58.10
2022-08-05T13:26:38.894Z,58.32
2022-08-05T13:27:52.509Z,58.48
2022-08-05T13:29:01.617Z,58.31
2022-08-05T13:31:34.033Z,57.95
2022-08-05T13:34:24.127Z,57.95
2022-08-05T13:37:01.144Z,57.90
2022-08-05T13:40:14.160Z,58.12
2022-08-05T13:40:51.761Z,58.18
2022-08-05T13:43:22.175Z,58.05
2022-08-05T13:44:29.419Z,58.12
2022-08-05T13:45:43.089Z,58.08
2022-08-05T13:47:02.298Z,57.92
2022-08-05T13:48:09.975Z,57.91
2022-08-05T13:50:27.370Z,57.91
2022-08-05T13:51:41.239Z,57.08
2022-08-05T13:52:49.977Z,57.25
2022-08-05T13:54:00.104Z,57.08
2022-08-05T13:55:11.964Z,57.07
2022-08-05T13:56:27.718Z,57.13
2022-08-05T13:58:53.858Z,57.14
2022-08-05T14:01:21.996Z,57.31
2022-08-05T14:06:04.774Z,57.42
2022-08-05T14:06:47.839Z,57.35
2022-08-05T14:09:13.660Z,57.34
2022-08-05T14:10:28.545Z,57.53
2022-08-05T14:12:54.625Z,57.38
2022-08-05T14:14:04.602Z,57.33
2022-08-05T14:16:09.128Z,57.45
2022-08-05T14:16:25.735Z,57.43
2022-08-05T14:17:35.398Z,57.10
2022-08-05T14:18:44.720Z,56.98
2022-08-05T14:19:56.819Z,57.04
2022-08-05T14:22:21.345Z,56.83
2022-08-05T14:23:36.485Z,57.14
2022-08-05T14:25:59.554Z,57.30
2022-08-05T14:28:26.947Z,57.02
2022-08-05T14:31:02.975Z,56.88
2022-08-05T14:33:32.510Z,56.93
2022-08-05T14:34:39.567Z,56.91
2022-08-05T14:35:50.470Z,57.00
2022-08-05T14:38:34.029Z,56.90
2022-08-05T14:40:56.245Z,56.68
2022-08-05T14:43:22.094Z,56.35
2022-08-05T14:46:01.921Z,56.07
2022-08-05T14:48:02.658Z,56.20
2022-08-05T14:48:33.111Z,55.93
2022-08-05T14:49:59.569Z,55.99
2022-08-05T14:52:08.056Z,55.86
2022-08-05T14:54:34.547Z,55.68
2022-08-05T14:55:48.354Z,55.73
2022-08-05T14:56:57.495Z,55.60
2022-08-05T14:58:14.225Z,55.52
2022-08-05T14:59:24.957Z,55.24
2022-08-05T15:00:36.556Z,54.91
2022-08-05T15:03:05.645Z,54.79
2022-08-05T15:06:08.270Z,54.67
2022-08-05T15:08:17.872Z,54.64
2022-08-05T15:09:52.342Z,53.00
2022-08-05T15:11:53.731Z,54.04
2022-08-05T15:13:05.391Z,54.66
2022-08-05T15:15:53.997Z,55.58
2022-08-05T15:18:09.611Z,57.53
2022-08-05T15:20:46.224Z,58.55
2022-08-05T15:22:00.253Z,58.58
2022-08-05T15:23:12.006Z,58.52
2022-08-05T15:24:21.769Z,59.01
2022-08-05T15:26:47.418Z,58.88
2022-08-05T15:27:57.804Z,58.98
2022-08-05T15:29:08.062Z,58.85
2022-08-05T15:30:18.919Z,59.08
2022-08-05T15:31:34.496Z,59.50
2022-08-05T15:32:40.380Z,59.79
2022-08-05T15:35:10.723Z,60.68
2022-08-05T15:38:32.716Z,62.67
2022-08-05T15:41:55.985Z,63.91
2022-08-05T15:43:08.008Z,64.23
2022-08-05T15:44:09.711Z,64.72
2022-08-05T15:45:38.747Z,65.01
2022-08-05T15:46:31.728Z,65.55
2022-08-05T15:47:43.038Z,65.51
2022-08-05T15:49:00.615Z,65.60
2022-08-05T15:52:13.001Z,65.60
2022-08-05T15:52:53.774Z,65.40
2022-08-05T15:53:52.641Z,65.46
2022-08-05T15:55:03.220Z,65.16
2022-08-05T15:56:14.404Z,65.08
2022-08-05T15:57:24.885Z,65.15
2022-08-05T15:58:37.155Z,66.09
2022-08-05T15:59:46.376Z,66.16
2022-08-05T16:02:19.577Z,65.69
2022-08-05T16:04:46.082Z,67.05
2022-08-05T16:07:23.255Z,67.82
2022-08-05T16:09:51.202Z,68.25
2022-08-05T16:11:02.704Z,68.12
2022-08-05T16:13:34.435Z,67.20
2022-08-05T16:14:41.676Z,67.09
2022-08-05T16:20:04.368Z,67.47
2022-08-05T16:22:34.335Z,67.90
2022-08-05T16:25:10.108Z,68.18
2022-08-05T16:26:26.274Z,67.85
2022-08-05T16:28:01.014Z,68.06
2022-08-05T16:29:58.326Z,68.67
2022-08-05T16:31:07.516Z,68.62
2022-08-05T16:32:28.383Z,68.06
2022-08-05T16:33:31.870Z,67.70
2022-08-05T16:36:00.146Z,67.73
2022-08-05T16:38:28.977Z,68.04
2022-08-05T16:42:12.198Z,67.82
2022-08-05T16:42:27.420Z,67.42
2022-08-05T16:44:54.272Z,67.51
2022-08-05T16:46:07.276Z,67.17
2022-08-05T16:47:29.064Z,67.05
2022-08-05T16:48:33.813Z,67.42
2022-08-05T16:49:38.722Z,68.47
2022-08-05T16:52:06.788Z,69.36
2022-08-05T16:54:32.902Z,68.56
2022-08-05T16:58:43.789Z,66.60
2022-08-05T17:01:11.553Z,65.78
2022-08-05T17:05:25.990Z,66.26
2022-08-05T17:07:54.693Z,66.54
2022-08-05T17:10:33.051Z,66.99
2022-08-05T17:12:57.555Z,65.88
2022-08-05T17:14:08.969Z,66.41
2022-08-05T17:15:20.749Z,65.27
2022-08-05T17:16:33.400Z,65.63
2022-08-05T17:17:42.877Z,65.50
2022-08-05T17:18:52.029Z,65.72
2022-08-05T17:21:19.977Z,66.03
2022-08-05T17:22:32.354Z,66.10
2022-08-05T17:25:00.235Z,66.44
2022-08-05T17:27:33.285Z,66.13
2022-08-05T17:31:24.387Z,65.15
2022-08-05T17:34:01.719Z,65.04
2022-08-05T17:35:12.535Z,65.47
2022-08-05T17:36:32.412Z,65.18
2022-08-05T17:38:53.558Z,65.05
2022-08-05T17:40:10.159Z,65.19
2022-08-05T17:42:38.230Z,64.72
2022-08-05T17:45:17.849Z,64.98
2022-08-05T17:48:59.771Z,65.07
2022-08-05T17:50:11.307Z,65.19
2022-08-05T17:52:53.216Z,65.20
2022-08-05T17:55:09.017Z,65.30
2022-08-05T17:59:01.158Z,65.42
2022-08-05T18:00:14.203Z,65.48
2022-08-05T18:02:39.065Z,65.94
2022-08-05T18:04:03.629Z,65.91
2022-08-05T18:06:17.600Z,65.61
2022-08-05T18:08:52.433Z,66.08
2022-08-05T18:11:29.674Z,67.95
2022-08-05T18:13:53.210Z,67.27
2022-08-05T18:15:08.755Z,67.16
2022-08-05T18:17:58.811Z,66.60
2022-08-05T18:22:57.351Z,66.69
2022-08-05T18:25:33.012Z,67.64
2022-08-05T18:26:39.580Z,67.72
2022-08-05T18:29:05.086Z,67.27
2022-08-05T18:30:16.218Z,67.16
2022-08-05T18:31:33.922Z,67.05
2022-08-05T18:33:54.254Z,67.04
2022-08-05T18:35:07.011Z,67.16
2022-08-05T18:37:40.467Z,67.21
2022-08-05T18:41:50.681Z,67.47
2022-08-05T18:42:41.710Z,67.88
2022-08-05T18:43:51.045Z,68.19
2022-08-05T18:45:06.845Z,68.23
2022-08-05T18:46:19.471Z,68.07
2022-08-05T18:48:45.665Z,67.88
2022-08-05T18:50:15.443Z,67.98
2022-08-05T18:52:59.141Z,68.58
2022-08-05T18:54:11.455Z,68.53
2022-08-05T18:56:36.035Z,68.74
2022-08-05T18:57:52.680Z,68.72
2022-08-05T18:59:01.227Z,68.82
2022-08-05T19:01:33.163Z,68.65
2022-08-05T19:03:56.609Z,68.54
2022-08-05T19:07:52.475Z,68.48
2022-08-05T19:10:26.491Z,68.25
2022-08-05T19:12:48.425Z,68.47
2022-08-05T19:16:46.683Z,67.77
2022-08-05T19:18:08.486Z,67.93
2022-08-05T19:20:25.014Z,67.59
2022-08-05T19:22:48.873Z,67.73
2022-08-05T19:26:54.723Z,67.88
2022-08-05T19:29:09.437Z,67.76
2022-08-05T19:31:51.152Z,68.20
2022-08-05T19:32:59.860Z,68.49
2022-08-05T19:35:26.844Z,68.65
2022-08-05T19:38:11.818Z,68.81
2022-08-05T19:42:07.373Z,68.18
2022-08-05T19:44:04.195Z,68.28
2022-08-05T19:44:29.096Z,68.05
2022-08-05T19:45:38.362Z,67.94
2022-08-05T19:46:50.355Z,67.95
2022-08-05T19:47:59.484Z,68.16
2022-08-05T19:50:24.198Z,68.30
2022-08-05T19:52:51.495Z,68.48
2022-08-05T19:56:15.640Z,67.71
2022-08-05T19:56:39.132Z,68.00
2022-08-05T19:59:51.606Z,67.64
2022-08-05T20:00:17.728Z,67.80
2022-08-05T20:02:44.236Z,67.85
2022-08-05T20:05:16.756Z,68.09
2022-08-05T20:07:49.415Z,68.23
2022-08-05T20:09:13.607Z,68.28
2022-08-05T20:10:13.149Z,68.34
2022-08-05T20:12:39.167Z,68.35
2022-08-05T20:15:08.753Z,68.64
2022-08-05T20:19:02.552Z,69.46
2022-08-05T20:21:30.003Z,69.43
2022-08-05T20:24:10.084Z,69.76
2022-08-05T20:26:34.338Z,69.90
2022-08-05T20:27:44.457Z,70.04
2022-08-05T20:28:56.214Z,70.26
2022-08-05T20:31:37.341Z,70.75
2022-08-05T20:32:45.191Z,70.54
2022-08-05T20:35:05.485Z,70.21
2022-08-05T20:36:21.048Z,70.04
2022-08-05T20:38:53.329Z,69.51
2022-08-05T20:39:58.287Z,69.17
2022-08-05T20:42:23.110Z,68.15
2022-08-05T20:44:51.138Z,68.19
2022-08-05T20:46:02.660Z,68.41
2022-08-05T20:48:27.002Z,68.82
2022-08-05T20:49:38.110Z,68.83
2022-08-05T20:50:48.681Z,68.69
2022-08-05T20:51:59.456Z,68.78
2022-08-05T20:53:16.113Z,68.94
2022-08-05T20:56:07.223Z,69.33
2022-08-05T20:56:54.123Z,69.56
2022-08-05T20:58:02.664Z,69.55
2022-08-05T21:00:49.524Z,69.86
2022-08-05T21:03:13.577Z,69.95
2022-08-05T21:04:41.644Z,70.05
2022-08-05T21:05:54.338Z,70.03
2022-08-05T21:07:09.231Z,70.19
2022-08-05T21:08:18.319Z,70.13
2022-08-05T21:09:28.254Z,70.11
2022-08-05T21:12:09.901Z,69.56
2022-08-05T21:14:35.229Z,68.74
2022-08-05T21:17:11.143Z,68.73
2022-08-05T21:18:21.345Z,68.70
2022-08-05T21:19:47.311Z,68.80
2022-08-05T21:22:00.382Z,69.48
2022-08-05T21:24:27.891Z,70.37
2022-08-05T21:28:23.829Z,71.47
2022-08-05T21:29:33.599Z,71.58
2022-08-05T21:30:45.837Z,71.89
2022-08-05T21:31:57.107Z,71.59
2022-08-05T21:34:25.033Z,70.88
2022-08-05T21:36:49.198Z,70.78
2022-08-05T21:39:28.163Z,70.61
2022-08-05T21:40:38.524Z,70.29
2022-08-05T21:43:05.845Z,70.22
2022-08-05T21:44:16.491Z,70.12
2022-08-05T21:46:42.413Z,70.01
2022-08-05T21:49:11.830Z,70.20
2022-08-05T21:53:16.153Z,69.65
2022-08-05T21:56:01.136Z,69.81
2022-08-05T21:58:10.262Z,69.92
2022-08-05T21:59:24.409Z,70.30
2022-08-05T22:00:32.357Z,70.50
2022-08-05T22:02:56.305Z,70.85
2022-08-05T22:04:06.069Z,71.30
2022-08-05T22:05:17.649Z,71.34
2022-08-05T22:06:37.042Z,70.86
2022-08-05T22:08:57.225Z,71.04
2022-08-05T22:11:34.883Z,71.31
2022-08-05T22:14:33.837Z,71.13
2022-08-05T22:16:01.210Z,70.93
2022-08-05T22:16:51.011Z,70.92
2022-08-05T22:18:58.962Z,70.52
2022-08-05T22:20:14.928Z,70.38
2022-08-05T22:21:23.606Z,70.44
2022-08-05T22:24:13.338Z,69.91
2022-08-05T22:27:19.536Z,69.79
2022-08-05T22:28:29.160Z,69.72
2022-08-05T22:29:38.903Z,70.36
2022-08-05T22:32:05.749Z,70.82
2022-08-05T22:33:17.112Z,71.04
2022-08-05T22:34:30.137Z,71.26
2022-08-05T22:36:56.994Z,70.78
2022-08-05T22:39:22.620Z,70.78
2022-08-05T22:42:11.718Z,70.42
2022-08-05T22:43:12.403Z,70.37
2022-08-05T22:45:38.586Z,69.87
2022-08-05T22:46:47.871Z,69.60
2022-08-05T22:50:17.334Z,69.40
2022-08-05T22:53:15.966Z,69.65
2022-08-05T22:54:24.064Z,69.88
2022-08-05T22:55:37.219Z,70.44
2022-08-05T22:56:48.076Z,70.76
2022-08-05T22:57:59.411Z,70.98
2022-08-05T22:59:45.083Z,70.76
2022-08-05T23:00:22.932Z,70.98
2022-08-05T23:02:47.633Z,70.70
2022-08-05T23:03:59.632Z,70.62
2022-08-05T23:05:08.652Z,70.58
2022-08-05T23:06:19.501Z,70.50
2022-08-05T23:07:31.050Z,70.32
2022-08-05T23:08:40.423Z,70.28
2022-08-05T23:11:06.082Z,69.46
2022-08-05T23:12:23.808Z,69.25
2022-08-05T23:13:34.356Z,69.03
2022-08-05T23:14:47.421Z,69.16
2022-08-05T23:17:34.723Z,69.16
2022-08-05T23:19:56.154Z,69.46
2022-08-05T23:21:02.779Z,69.99
2022-08-05T23:22:12.400Z,70.40
2022-08-05T23:23:23.359Z,70.60
2022-08-05T23:25:55.179Z,71.22
2022-08-05T23:28:17.495Z,71.16
2022-08-05T23:32:11.233Z,70.04
2022-08-05T23:33:22.491Z,70.11
2022-08-05T23:34:31.481Z,70.13
2022-08-05T23:35:41.504Z,69.80
2022-08-05T23:36:50.536Z,69.56
2022-08-05T23:39:23.732Z,69.12
2022-08-05T23:40:32.708Z,69.21
2022-08-05T23:41:48.433Z,69.08
2022-08-05T23:42:57.309Z,69.29
2022-08-05T23:44:08.646Z,69.65
2022-08-05T23:46:32.971Z,69.84
2022-08-05T23:47:47.999Z,70.09
2022-08-05T23:48:59.627Z,70.24
2022-08-05T23:51:23.744Z,70.53
2022-08-05T23:52:35.862Z,70.76
2022-08-05T23:53:47.177Z,70.45
2022-08-05T23:56:14.501Z,69.77
2022-08-05T23:58:42.548Z,69.04
